Time;durP1;ratioP1;P1;durP2;ratioP2;P2;SDS_P1;SDS_P2;PMS_P1;PMS_P2;Temp;Humidity;BMP_temperature;BMP_pressure;BME280_temperature;BME280_humidity;BME280_pressure;Samples;Min_cycle;Max_cycle;Signal;HPM_P1;HPM_P2
2022/03/14 00:01:25;;;;;;;18.87;16.00;;;11.30;34.40;;;;;;5138537;27;20450;-46
2022/03/14 00:03:53;;;;;;;18.63;15.60;;;11.30;34.70;;;;;;5140270;27;20401;-46
2022/03/14 00:06:20;;;;;;;18.47;16.37;;;11.30;34.10;;;;;;5139664;27;20254;-46
2022/03/14 00:08:46;;;;;;;18.40;16.17;;;11.30;34.10;;;;;;5138896;27;20450;-46
2022/03/14 00:11:14;;;;;;;18.27;16.30;;;11.30;34.00;;;;;;5137172;27;20435;-46
2022/03/14 00:13:46;;;;;;;19.40;16.10;;;11.30;34.00;;;;;;5139365;27;20814;-46
2022/03/14 00:16:15;;;;;;;18.73;16.23;;;11.30;34.00;;;;;;5137249;27;20486;-46
2022/03/14 00:18:47;;;;;;;18.53;16.20;;;11.30;34.10;;;;;;5120998;27;20510;-46
2022/03/14 00:21:13;;;;;;;18.57;16.63;;;11.30;34.10;;;;;;5137550;27;20422;-46
2022/03/14 00:23:39;;;;;;;19.67;17.17;;;11.30;34.30;;;;;;5139345;27;20468;-46
2022/03/14 00:26:07;;;;;;;18.53;16.03;;;11.30;34.50;;;;;;5138573;27;20557;-45
2022/03/14 00:28:33;;;;;;;19.83;17.73;;;11.30;34.50;;;;;;5139795;27;20168;-46
2022/03/14 00:30:58;;;;;;;18.73;15.93;;;11.30;34.60;;;;;;5137706;27;20470;-46
2022/03/14 00:33:25;;;;;;;18.10;16.20;;;11.30;34.60;;;;;;5140391;27;20207;-46
2022/03/14 00:35:51;;;;;;;16.57;14.80;;;11.20;34.50;;;;;;5138530;27;20490;-46
2022/03/14 00:38:16;;;;;;;20.00;16.57;;;11.20;34.40;;;;;;5139143;27;20214;-46
2022/03/14 00:40:42;;;;;;;17.03;15.30;;;11.10;34.40;;;;;;5138207;27;20183;-46
2022/03/14 00:43:07;;;;;;;18.10;15.23;;;11.10;34.50;;;;;;5140931;27;20210;-45
2022/03/14 00:45:34;;;;;;;17.73;15.83;;;11.10;34.50;;;;;;5123654;27;20186;-44
2022/03/14 00:48:00;;;;;;;16.90;14.53;;;11.10;34.50;;;;;;5139341;27;20314;-46
2022/03/14 00:50:26;;;;;;;16.27;14.57;;;11.00;34.20;;;;;;5140626;27;20449;-45
2022/03/14 00:52:52;;;;;;;17.03;15.13;;;11.00;34.10;;;;;;5138625;27;20432;-46
2022/03/14 00:55:18;;;;;;;15.73;14.03;;;11.10;34.30;;;;;;5139828;27;20467;-45
2022/03/14 00:57:43;;;;;;;17.03;15.23;;;11.00;34.20;;;;;;5137957;27;20596;-46
2022/03/14 01:00:10;;;;;;;16.27;13.87;;;11.10;34.30;;;;;;5139150;27;20428;-46
2022/03/14 01:02:35;;;;;;;17.40;15.60;;;11.10;34.30;;;;;;5139499;27;20211;-46
2022/03/14 01:05:01;;;;;;;17.10;15.30;;;11.10;34.30;;;;;;5120306;27;20441;-47
2022/03/14 01:07:27;;;;;;;17.20;15.50;;;11.10;34.50;;;;;;5137458;27;20176;-45
2022/03/14 01:09:52;;;;;;;17.43;15.53;;;11.00;34.50;;;;;;5139298;27;20176;-45
2022/03/14 01:12:18;;;;;;;19.23;16.27;;;11.00;34.70;;;;;;5137544;27;20633;-44
2022/03/14 01:14:43;;;;;;;16.17;14.40;;;11.00;34.80;;;;;;5139895;27;20188;-45
2022/03/14 01:17:10;;;;;;;16.57;14.53;;;11.10;34.90;;;;;;5119593;27;20179;-45
2022/03/14 01:19:38;;;;;;;17.90;15.90;;;11.00;34.80;;;;;;5139582;27;20270;-45
2022/03/14 01:22:09;;;;;;;18.67;16.73;;;11.00;35.30;;;;;;5137691;27;20525;-45
2022/03/14 01:24:42;;;;;;;20.77;15.50;;;11.00;34.90;;;;;;5139481;27;20405;-45
2022/03/14 01:27:08;;;;;;;19.20;15.90;;;11.00;35.00;;;;;;5137814;27;20417;-45
2022/03/14 01:29:34;;;;;;;17.50;15.67;;;11.00;35.00;;;;;;5139492;27;20807;-45
2022/03/14 01:32:01;;;;;;;16.83;15.10;;;11.00;35.00;;;;;;5137815;27;20418;-45
2022/03/14 01:34:27;;;;;;;20.60;16.83;;;11.00;35.10;;;;;;5139042;27;20428;-45
2022/03/14 01:36:53;;;;;;;19.83;17.30;;;10.90;35.20;;;;;;5137523;27;20408;-46
2022/03/14 01:39:18;;;;;;;17.93;16.03;;;10.90;35.50;;;;;;5139551;28;20198;-45
2022/03/14 01:41:44;;;;;;;17.80;15.90;;;10.90;35.60;;;;;;5138750;28;20176;-45
2022/03/14 01:44:09;;;;;;;17.83;15.80;;;10.90;35.90;;;;;;5137392;27;20248;-45
2022/03/14 01:46:35;;;;;;;18.07;16.07;;;10.90;36.60;;;;;;5138855;28;20258;-45
2022/03/14 01:49:01;;;;;;;18.90;17.00;;;11.00;37.80;;;;;;5136963;28;20229;-45
2022/03/14 01:51:27;;;;;;;18.17;16.27;;;11.00;38.60;;;;;;5141948;27;20191;-46
2022/03/14 01:53:53;;;;;;;18.37;16.60;;;11.00;39.60;;;;;;5141144;27;20232;-45
2022/03/14 01:56:19;;;;;;;20.07;17.83;;;11.00;41.00;;;;;;5143434;27;20266;-45
2022/03/14 01:58:46;;;;;;;20.63;18.50;;;11.00;41.10;;;;;;5123518;27;20419;-44
2022/03/14 02:01:12;;;;;;;21.53;19.33;;;11.00;42.30;;;;;;5143064;27;20511;-45
2022/03/14 02:03:38;;;;;;;25.63;19.40;;;11.00;43.60;;;;;;5142744;27;20559;-45
2022/03/14 02:06:03;;;;;;;21.50;19.20;;;11.10;44.60;;;;;;5141677;27;20450;-45
2022/03/14 02:08:29;;;;;;;19.60;17.50;;;11.10;45.20;;;;;;5142327;27;20186;-45
2022/03/14 02:10:54;;;;;;;22.03;18.00;;;11.10;45.90;;;;;;5141037;27;20529;-45
2022/03/14 02:13:21;;;;;;;17.60;15.80;;;11.10;46.40;;;;;;5142480;27;20183;-45
2022/03/14 02:15:47;;;;;;;17.03;15.30;;;11.10;47.50;;;;;;5105320;27;20179;-49
2022/03/14 02:20:57;;;;;;;16.50;14.90;;;11.10;49.10;;;;;;5095894;27;20534;-45
2022/03/14 02:23:22;;;;;;;15.83;14.20;;;11.10;49.80;;;;;;5142082;27;20456;-45
2022/03/14 02:25:53;;;;;;;15.97;14.37;;;11.10;50.10;;;;;;5140451;27;20275;-45
2022/03/14 02:28:22;;;;;;;16.40;14.70;;;11.20;50.50;;;;;;5142123;27;20176;-45
2022/03/14 02:30:51;;;;;;;15.73;14.13;;;11.20;50.90;;;;;;5140963;27;20488;-45
2022/03/14 02:33:17;;;;;;;15.30;13.67;;;11.20;51.10;;;;;;5142430;27;20519;-45
2022/03/14 02:35:44;;;;;;;15.90;14.20;;;11.20;51.30;;;;;;5140913;27;20436;-45
2022/03/14 02:38:14;;;;;;;14.27;12.87;;;11.20;52.00;;;;;;5142132;27;20428;-45
2022/03/14 02:40:46;;;;;;;15.20;13.70;;;11.20;52.50;;;;;;5141751;27;20423;-45
2022/03/14 02:43:20;;;;;;;14.53;13.13;;;11.20;53.10;;;;;;5142231;27;20461;-45
2022/03/14 02:45:47;;;;;;;15.47;13.87;;;11.30;54.40;;;;;;5140507;27;20421;-46
2022/03/14 02:48:13;;;;;;;15.40;13.13;;;11.30;55.70;;;;;;5142225;27;20413;-45
2022/03/14 02:50:42;;;;;;;16.17;12.00;;;11.20;56.50;;;;;;5142220;27;20424;-45
2022/03/14 02:53:13;;;;;;;14.83;13.33;;;11.20;57.30;;;;;;5124165;27;20232;-45
2022/03/14 02:55:39;;;;;;;16.57;13.90;;;11.20;58.20;;;;;;5141967;27;20460;-45
2022/03/14 02:58:05;;;;;;;14.90;13.40;;;11.20;59.20;;;;;;5139964;27;20588;-46
2022/03/14 03:00:31;;;;;;;14.37;12.87;;;11.10;61.90;;;;;;5142032;27;20409;-46
2022/03/14 03:02:57;;;;;;;14.00;12.60;;;11.10;64.80;;;;;;5138916;27;20871;-45
2022/03/14 03:05:22;;;;;;;14.63;13.13;;;11.10;67.20;;;;;;5141415;27;20588;-45
2022/03/14 03:07:49;;;;;;;14.93;13.43;;;11.10;69.60;;;;;;5139696;27;20578;-45
2022/03/14 03:10:19;;;;;;;15.73;14.03;;;11.10;72.00;;;;;;5141322;27;20207;-45
2022/03/14 03:12:45;;;;;;;16.43;14.63;;;11.10;74.80;;;;;;5140519;27;20685;-46
2022/03/14 03:15:15;;;;;;;14.03;12.73;;;11.00;77.70;;;;;;5141142;27;20418;-45
2022/03/14 03:17:43;;;;;;;13.33;11.87;;;11.00;80.00;;;;;;5139763;27;20463;-45
2022/03/14 03:20:10;;;;;;;12.37;11.17;;;10.90;81.60;;;;;;5141635;27;20417;-45
2022/03/14 03:22:35;;;;;;;9.93;8.97;;;10.90;82.80;;;;;;5139570;27;20514;-45
2022/03/14 03:25:01;;;;;;;8.60;7.50;;;10.80;83.40;;;;;;5123109;27;20446;-45
2022/03/14 03:27:27;;;;;;;8.80;7.53;;;10.80;82.90;;;;;;5139838;27;20840;-45
2022/03/14 03:29:52;;;;;;;7.00;6.40;;;10.80;83.40;;;;;;5141380;27;20168;-45
2022/03/14 03:32:18;;;;;;;7.20;6.00;;;10.70;83.70;;;;;;5139235;27;20431;-45
2022/03/14 03:34:44;;;;;;;6.07;5.50;;;10.70;84.00;;;;;;5141118;27;20172;-45
2022/03/14 03:37:09;;;;;;;5.57;5.07;;;10.60;85.00;;;;;;5140208;27;20191;-45
2022/03/14 03:39:35;;;;;;;6.00;5.37;;;10.60;85.00;;;;;;5140698;27;20172;-45
2022/03/14 03:42:01;;;;;;;6.40;5.80;;;10.60;85.40;;;;;;5138775;27;20199;-45
2022/03/14 03:44:26;;;;;;;5.57;5.07;;;10.50;85.40;;;;;;5140841;27;20494;-45
2022/03/14 03:46:52;;;;;;;5.90;5.30;;;10.50;85.90;;;;;;5139205;27;20263;-45
2022/03/14 03:49:17;;;;;;;5.90;5.30;;;10.50;86.50;;;;;;5140674;27;20244;-45
2022/03/14 03:51:43;;;;;;;4.60;4.03;;;10.50;86.80;;;;;;5139033;27;20183;-45
2022/03/14 03:54:09;;;;;;;3.63;3.20;;;10.50;87.00;;;;;;5140394;27;20637;-45
2022/03/14 03:56:35;;;;;;;2.70;2.40;;;10.40;87.00;;;;;;5121463;27;20554;-45
2022/03/14 03:59:00;;;;;;;2.40;2.10;;;10.40;87.60;;;;;;5140212;27;20245;-46
2022/03/14 04:01:29;;;;;;;2.33;1.93;;;10.40;87.90;;;;;;5139200;27;20422;-45
2022/03/14 04:03:55;;;;;;;1.73;1.43;;;10.30;88.00;;;;;;5140195;27;20279;-45
2022/03/14 04:06:27;;;;;;;1.73;1.60;;;10.30;87.90;;;;;;5139355;27;20462;-45
2022/03/14 04:08:54;;;;;;;2.30;1.80;;;10.30;87.80;;;;;;5140004;27;20439;-45
2022/03/14 04:11:21;;;;;;;1.80;1.30;;;10.20;87.90;;;;;;5137182;27;20425;-45
2022/03/14 04:13:48;;;;;;;1.60;1.10;;;10.20;88.30;;;;;;5139983;27;20413;-45
2022/03/14 04:16:18;;;;;;;1.50;1.30;;;10.10;88.70;;;;;;5120272;27;20432;-45
2022/03/14 04:18:44;;;;;;;1.37;1.07;;;10.10;89.30;;;;;;5138863;27;20481;-45
2022/03/14 04:21:12;;;;;;;1.07;0.80;;;10.10;89.60;;;;;;5137022;27;20417;-45
2022/03/14 04:23:38;;;;;;;1.40;0.93;;;10.10;89.90;;;;;;5138383;27;20479;-45
2022/03/14 04:26:04;;;;;;;1.47;1.03;;;10.00;89.90;;;;;;5137014;27;20687;-45
2022/03/14 04:28:30;;;;;;;1.30;0.90;;;10.00;90.10;;;;;;5138560;27;20508;-45
2022/03/14 04:30:56;;;;;;;1.00;0.67;;;9.90;90.90;;;;;;5136099;27;20262;-45
2022/03/14 04:33:21;;;;;;;1.20;0.70;;;9.90;91.10;;;;;;5137358;27;20178;-45
2022/03/14 04:35:47;;;;;;;1.23;1.10;;;9.90;91.10;;;;;;5136383;27;20717;-46
2022/03/14 04:38:13;;;;;;;1.13;0.77;;;9.80;91.10;;;;;;5139298;27;20167;-45
2022/03/14 04:40:39;;;;;;;1.03;0.70;;;9.80;91.10;;;;;;5139466;27;20168;-46
2022/03/14 04:43:06;;;;;;;1.20;1.07;;;9.70;91.20;;;;;;5137225;27;20567;-46
2022/03/14 04:45:32;;;;;;;1.10;0.70;;;9.70;91.30;;;;;;5138340;27;20413;-46
2022/03/14 04:47:59;;;;;;;1.70;1.20;;;9.70;91.30;;;;;;5135436;27;20424;-46
2022/03/14 04:50:25;;;;;;;2.30;1.10;;;9.70;91.20;;;;;;5136251;27;20455;-46
2022/03/14 04:52:50;;;;;;;1.27;0.80;;;9.70;91.20;;;;;;5134801;27;20518;-46
2022/03/14 04:55:16;;;;;;;1.10;0.80;;;9.70;91.10;;;;;;5136056;27;20469;-46
2022/03/14 04:57:42;;;;;;;0.90;0.63;;;9.70;91.10;;;;;;5134035;27;20179;-45
2022/03/14 05:00:08;;;;;;;1.90;1.70;;;9.70;91.00;;;;;;5136489;27;20627;-46
2022/03/14 05:02:34;;;;;;;1.10;0.90;;;9.70;91.00;;;;;;5135792;27;20207;-46
2022/03/14 05:05:00;;;;;;;2.83;0.70;;;9.70;91.20;;;;;;5140755;27;20418;-48
2022/03/14 05:07:25;;;;;;;1.40;0.87;;;9.70;91.40;;;;;;5138789;27;20415;-47
2022/03/14 05:09:51;;;;;;;1.40;1.00;;;9.70;91.50;;;;;;5141355;27;20240;-48
2022/03/14 05:12:17;;;;;;;1.00;0.70;;;9.60;91.40;;;;;;5140434;27;20179;-47
2022/03/14 05:14:42;;;;;;;1.00;0.60;;;9.60;91.60;;;;;;5123878;27;20184;-46
2022/03/14 05:17:09;;;;;;;1.03;0.80;;;9.70;91.60;;;;;;5140599;27;20566;-47
2022/03/14 05:19:35;;;;;;;1.00;0.80;;;9.60;91.70;;;;;;5142320;27;20189;-47
2022/03/14 05:22:01;;;;;;;1.30;0.80;;;9.60;91.60;;;;;;5142289;27;20461;-46
2022/03/14 05:24:27;;;;;;;0.97;0.77;;;9.60;91.70;;;;;;5139939;27;20425;-49
2022/03/14 05:26:57;;;;;;;1.70;0.83;;;9.60;91.70;;;;;;5139009;27;20409;-47
2022/03/14 05:29:23;;;;;;;1.07;0.80;;;9.50;91.50;;;;;;5141332;27;20428;-45
2022/03/14 05:31:49;;;;;;;1.93;0.90;;;9.50;91.50;;;;;;5141103;27;20406;-47
2022/03/14 05:34:14;;;;;;;1.63;0.87;;;9.50;91.50;;;;;;5121522;27;20513;-47
2022/03/14 05:36:40;;;;;;;1.10;0.93;;;9.50;91.70;;;;;;5140033;27;20171;-48
2022/03/14 05:39:07;;;;;;;1.40;0.80;;;9.40;91.70;;;;;;5140692;27;20549;-47
2022/03/14 05:41:34;;;;;;;1.00;0.70;;;9.40;92.20;;;;;;5121256;28;20420;-47
2022/03/14 05:44:00;;;;;;;1.00;0.70;;;9.40;92.00;;;;;;5139155;28;20862;-47
2022/03/14 05:46:26;;;;;;;1.27;0.80;;;9.30;91.90;;;;;;5139713;28;20691;-46
2022/03/14 05:48:53;;;;;;;1.03;0.80;;;9.30;92.10;;;;;;5139926;28;20424;-47
2022/03/14 05:51:19;;;;;;;1.00;0.83;;;9.30;92.30;;;;;;5139514;28;20167;-46
2022/03/14 05:53:45;;;;;;;1.30;1.03;;;9.30;92.30;;;;;;5139656;28;20843;-46
2022/03/14 05:56:11;;;;;;;1.70;1.50;;;9.30;92.40;;;;;;5120653;28;20439;-46
2022/03/14 05:58:36;;;;;;;1.90;1.70;;;9.30;92.40;;;;;;5139568;28;20267;-46
2022/03/14 06:01:02;;;;;;;1.80;1.30;;;9.30;92.50;;;;;;5119315;28;20214;-46
2022/03/14 06:03:28;;;;;;;1.87;1.50;;;9.30;92.50;;;;;;5139773;28;20209;-47
2022/03/14 06:05:55;;;;;;;1.50;1.00;;;9.30;92.50;;;;;;5140146;28;20220;-47
2022/03/14 06:08:22;;;;;;;1.27;0.90;;;9.30;92.50;;;;;;5120780;28;20432;-46
2022/03/14 06:10:48;;;;;;;1.40;1.30;;;9.30;92.50;;;;;;5102533;28;20454;-46
2022/03/14 06:13:14;;;;;;;1.07;0.80;;;9.30;92.40;;;;;;5139559;28;20707;-46
2022/03/14 06:15:40;;;;;;;2.70;1.00;;;9.30;92.30;;;;;;5120770;28;20172;-48
2022/03/14 06:18:06;;;;;;;1.20;0.97;;;9.40;92.20;;;;;;5137820;28;20918;-46
2022/03/14 06:20:32;;;;;;;1.47;1.10;;;9.40;91.90;;;;;;5127968;28;20489;-46
2022/03/14 06:22:58;;;;;;;1.93;1.50;;;9.50;91.80;;;;;;5106772;28;20486;-48
2022/03/14 06:25:24;;;;;;;1.60;1.20;;;9.50;91.70;;;;;;5122193;28;20437;-47
2022/03/14 06:27:51;;;;;;;1.23;0.80;;;9.60;91.50;;;;;;5118058;28;20177;-46
2022/03/14 06:30:17;;;;;;;2.07;1.10;;;9.60;91.20;;;;;;5138774;28;20833;-47
2022/03/14 06:32:46;;;;;;;1.27;0.80;;;9.60;91.10;;;;;;5135355;28;20441;-46
2022/03/14 06:35:13;;;;;;;1.40;0.80;;;9.60;90.90;;;;;;5139389;28;20702;-46
2022/03/14 06:37:39;;;;;;;2.20;0.87;;;9.50;90.80;;;;;;5140835;27;20789;-47
2022/03/14 06:40:05;;;;;;;2.33;1.10;;;9.50;90.80;;;;;;5140810;27;20423;-46
2022/03/14 06:42:31;;;;;;;2.60;0.97;;;9.50;90.90;;;;;;5142437;27;20468;-46
2022/03/14 06:45:01;;;;;;;1.60;0.90;;;9.50;91.00;;;;;;5139960;27;20424;-46
2022/03/14 06:47:27;;;;;;;1.67;1.10;;;9.50;91.10;;;;;;5138388;27;20179;-46
2022/03/14 06:49:52;;;;;;;1.37;1.00;;;9.60;91.10;;;;;;5119182;28;20774;-46
2022/03/14 06:52:18;;;;;;;1.70;1.13;;;9.70;91.20;;;;;;5121566;28;20181;-46
2022/03/14 06:54:44;;;;;;;1.43;0.97;;;9.80;91.10;;;;;;5117184;28;20232;-46
2022/03/14 06:57:10;;;;;;;1.43;0.80;;;10.10;90.50;;;;;;5119430;28;20929;-46
2022/03/14 06:59:36;;;;;;;1.00;0.70;;;10.20;90.10;;;;;;5117010;28;20180;-46
2022/03/14 07:02:03;;;;;;;1.03;0.80;;;10.30;89.60;;;;;;5118905;28;20497;-46
2022/03/14 07:04:29;;;;;;;1.40;1.00;;;10.30;89.10;;;;;;5115711;28;20799;-47
2022/03/14 07:06:55;;;;;;;2.00;0.90;;;10.40;89.00;;;;;;5118783;28;20787;-46
2022/03/14 07:09:21;;;;;;;2.33;0.90;;;10.50;89.00;;;;;;5118445;28;20859;-47
2022/03/14 07:11:51;;;;;;;1.60;0.80;;;10.70;88.60;;;;;;5120554;28;20547;-47
2022/03/14 07:14:19;;;;;;;1.37;0.80;;;10.90;87.90;;;;;;5119694;28;20422;-46
2022/03/14 07:16:45;;;;;;;2.03;0.80;;;11.20;87.10;;;;;;5121059;28;20481;-47
2022/03/14 07:19:10;;;;;;;1.73;0.70;;;11.50;85.90;;;;;;5118149;28;20488;-47
2022/03/14 07:21:36;;;;;;;1.40;1.23;;;11.80;84.40;;;;;;5100586;28;20172;-46
2022/03/14 07:24:02;;;;;;;2.20;0.83;;;12.00;83.20;;;;;;5115918;28;20336;-47
2022/03/14 07:26:27;;;;;;;1.83;0.73;;;12.20;82.20;;;;;;5120193;28;20378;-46
2022/03/14 07:28:53;;;;;;;0.87;0.50;;;12.40;80.80;;;;;;5118644;28;20168;-47
2022/03/14 07:31:20;;;;;;;1.40;0.70;;;12.60;79.40;;;;;;5120153;28;20312;-47
2022/03/14 07:33:48;;;;;;;1.90;0.60;;;12.80;78.60;;;;;;5120493;28;20202;-47
2022/03/14 07:36:13;;;;;;;1.10;0.53;;;12.90;77.30;;;;;;5119959;28;20419;-47
2022/03/14 07:38:39;;;;;;;1.17;0.60;;;13.00;76.50;;;;;;5119574;28;20467;-46
2022/03/14 07:41:05;;;;;;;1.00;0.60;;;13.20;74.80;;;;;;5118777;28;20521;-46
2022/03/14 07:43:30;;;;;;;1.20;0.80;;;13.20;73.40;;;;;;5120613;28;20212;-47
2022/03/14 07:45:56;;;;;;;1.90;0.70;;;13.40;72.00;;;;;;5119475;28;20427;-47
2022/03/14 07:48:22;;;;;;;1.23;0.60;;;13.60;71.50;;;;;;5120195;28;20164;-47
2022/03/14 07:50:49;;;;;;;1.67;0.80;;;13.80;71.10;;;;;;5120100;28;20187;-47
2022/03/14 07:53:14;;;;;;;1.10;0.70;;;14.10;69.20;;;;;;5120759;28;20483;-47
2022/03/14 07:55:40;;;;;;;4.27;0.93;;;14.30;67.20;;;;;;5119750;28;20494;-47
2022/03/14 07:58:06;;;;;;;1.70;0.80;;;14.60;66.20;;;;;;5121752;28;20177;-47
2022/03/14 08:00:32;;;;;;;1.30;0.87;;;14.80;64.40;;;;;;5121147;28;20191;-47
2022/03/14 08:02:58;;;;;;;1.20;0.70;;;15.10;63.00;;;;;;5119484;28;20398;-47
2022/03/14 08:05:25;;;;;;;2.10;1.20;;;15.30;61.10;;;;;;5122680;27;20889;-47
2022/03/14 08:07:51;;;;;;;2.17;1.07;;;15.50;59.20;;;;;;5119851;28;20168;-47
2022/03/14 08:10:18;;;;;;;2.63;1.13;;;15.40;57.60;;;;;;5120550;28;20429;-47
2022/03/14 08:12:49;;;;;;;2.10;0.70;;;15.60;57.10;;;;;;5120668;28;20495;-47
2022/03/14 08:15:41;;;;;;;2.23;0.90;;;15.80;56.90;;;;;;5118165;28;20543;-47
2022/03/14 08:18:08;;;;;;;2.70;1.03;;;16.20;56.00;;;;;;5116139;28;20677;-47
2022/03/14 08:20:34;;;;;;;4.00;1.23;;;16.30;55.00;;;;;;5118470;28;20538;-46
2022/03/14 08:23:02;;;;;;;3.77;1.03;;;16.20;54.30;;;;;;5136690;27;20478;-47
2022/03/14 08:25:29;;;;;;;3.53;1.00;;;16.00;53.80;;;;;;5140760;27;20413;-47
2022/03/14 08:27:55;;;;;;;1.80;0.90;;;15.60;53.50;;;;;;5123049;27;20478;-47
2022/03/14 08:30:24;;;;;;;3.57;1.20;;;15.30;54.00;;;;;;5139567;27;20434;-47
2022/03/14 08:32:51;;;;;;;2.43;0.90;;;15.20;54.40;;;;;;5141777;27;20488;-46
2022/03/14 08:35:20;;;;;;;2.97;1.20;;;14.90;56.60;;;;;;5121012;27;20430;-46
2022/03/14 08:37:46;;;;;;;3.27;1.10;;;15.00;59.80;;;;;;5142982;27;20425;-46
2022/03/14 08:40:15;;;;;;;3.90;1.20;;;15.20;60.40;;;;;;5140476;27;20426;-46
2022/03/14 08:42:42;;;;;;;6.43;1.20;;;15.60;59.80;;;;;;5141458;27;20464;-46
2022/03/14 08:45:08;;;;;;;2.00;0.87;;;16.20;59.60;;;;;;5140297;27;20432;-55
2022/03/14 08:47:35;;;;;;;5.27;1.20;;;16.80;57.70;;;;;;5140358;27;20410;-46
2022/03/14 08:50:02;;;;;;;1.63;0.90;;;17.90;55.60;;;;;;5136558;27;20447;-46
2022/03/14 08:52:28;;;;;;;3.07;1.23;;;18.70;53.60;;;;;;5119610;27;20683;-46
2022/03/14 08:54:55;;;;;;;4.13;1.30;;;19.00;51.30;;;;;;5137939;27;21092;-46
2022/03/14 08:57:21;;;;;;;1.70;1.30;;;19.00;49.60;;;;;;5123131;27;20411;-46
2022/03/14 08:59:46;;;;;;;2.27;0.87;;;19.00;47.10;;;;;;5140439;27;20830;-46
2022/03/14 09:02:12;;;;;;;4.47;1.10;;;19.10;45.40;;;;;;5124277;27;20205;-46
2022/03/14 09:04:38;;;;;;;2.20;0.90;;;19.20;44.80;;;;;;5139153;27;20202;-46
2022/03/14 09:07:04;;;;;;;2.33;1.40;;;19.90;43.80;;;;;;5140698;27;20177;-46
2022/03/14 09:09:30;;;;;;;6.30;1.77;;;20.70;41.70;;;;;;5137487;27;20422;-46
2022/03/14 09:11:55;;;;;;;2.97;1.17;;;21.40;39.90;;;;;;5121951;27;20620;-46
2022/03/14 09:14:21;;;;;;;2.53;1.50;;;21.70;38.70;;;;;;5140291;27;20188;-45
2022/03/14 09:16:48;;;;;;;3.60;1.30;;;22.40;38.10;;;;;;5138822;27;20187;-46
2022/03/14 09:19:14;;;;;;;2.20;1.13;;;23.20;37.50;;;;;;5140741;27;20487;-46
2022/03/14 09:21:40;;;;;;;3.50;1.43;;;24.10;36.40;;;;;;5139917;27;20805;-46
2022/03/14 09:24:05;;;;;;;3.10;1.27;;;24.90;35.30;;;;;;5135597;27;20458;-46
2022/03/14 09:26:32;;;;;;;2.57;0.80;;;24.80;34.30;;;;;;5137898;27;20205;-46
2022/03/14 09:28:59;;;;;;;3.03;1.23;;;24.50;33.70;;;;;;5130019;27;20240;-46
2022/03/14 09:31:24;;;;;;;4.20;1.10;;;24.40;33.70;;;;;;5138256;27;20439;-46
2022/03/14 09:33:51;;;;;;;3.07;1.57;;;24.80;33.00;;;;;;5136175;27;20425;-46
2022/03/14 09:36:16;;;;;;;3.10;1.63;;;24.50;32.30;;;;;;5118851;28;20602;-46
2022/03/14 09:38:45;;;;;;;2.83;1.20;;;24.10;32.60;;;;;;5136540;27;20423;-46
2022/03/14 09:41:13;;;;;;;4.20;1.33;;;24.30;32.90;;;;;;5137798;28;20245;-46
2022/03/14 09:43:40;;;;;;;2.10;1.10;;;24.90;32.70;;;;;;5134671;28;20480;-46
2022/03/14 09:46:07;;;;;;;2.37;1.30;;;25.80;32.40;;;;;;5137375;28;20435;-46
2022/03/14 09:48:36;;;;;;;3.13;1.27;;;26.20;31.70;;;;;;5135815;28;20419;-46
2022/03/14 09:51:06;;;;;;;3.80;1.40;;;26.60;31.20;;;;;;5138549;28;20497;-46
2022/03/14 09:53:34;;;;;;;2.53;1.23;;;26.80;30.40;;;;;;5135996;28;20455;-46
2022/03/14 09:55:59;;;;;;;2.73;1.27;;;27.20;30.10;;;;;;5134060;28;21141;-46
2022/03/14 09:58:26;;;;;;;5.70;1.70;;;27.60;30.10;;;;;;5119603;28;20466;-47
2022/03/14 10:00:52;;;;;;;2.97;1.33;;;28.00;29.80;;;;;;5137508;28;20175;-46
2022/03/14 10:03:18;;;;;;;2.63;1.13;;;28.60;29.20;;;;;;5139443;28;20470;-47
2022/03/14 10:05:44;;;;;;;1.87;1.07;;;28.90;28.80;;;;;;5118182;28;20435;-47
2022/03/14 10:08:11;;;;;;;3.23;1.23;;;29.20;28.00;;;;;;5139781;28;20504;-47
2022/03/14 10:10:38;;;;;;;2.63;1.33;;;29.60;27.90;;;;;;5119327;27;20427;-47
2022/03/14 10:13:08;;;;;;;2.10;1.20;;;29.90;27.30;;;;;;5142953;27;20679;-47
2022/03/14 10:15:37;;;;;;;3.70;1.23;;;30.40;27.00;;;;;;5142342;27;20436;-47
2022/03/14 10:18:13;;;;;;;2.80;1.00;;;30.90;26.30;;;;;;5124472;27;20417;-47
2022/03/14 10:21:05;;;;;;;2.87;1.53;;;30.80;26.20;;;;;;5122967;27;20446;-47
2022/03/14 10:23:43;;;;;;;3.47;1.20;;;31.20;26.00;;;;;;5141717;27;20513;-47
2022/03/14 10:26:16;;;;;;;2.13;1.00;;;31.80;25.60;;;;;;5141460;27;20396;-47
2022/03/14 10:28:48;;;;;;;2.73;1.10;;;32.20;25.00;;;;;;5125036;27;20826;-47
2022/03/14 10:31:14;;;;;;;3.77;1.20;;;32.70;25.10;;;;;;5140101;27;20768;-46
2022/03/14 10:33:40;;;;;;;3.00;1.00;;;33.40;26.50;;;;;;5139269;27;20699;-45
2022/03/14 10:36:06;;;;;;;2.10;1.07;;;34.00;26.10;;;;;;5139248;27;20446;-45
2022/03/14 10:38:41;;;;;;;2.07;1.10;;;34.70;25.50;;;;;;5140839;27;20178;-45
2022/03/14 10:41:16;;;;;;;2.67;1.30;;;35.30;25.20;;;;;;5139932;27;20183;-45
2022/03/14 10:43:42;;;;;;;1.20;0.77;;;35.50;25.10;;;;;;5140771;27;20469;-46
2022/03/14 10:46:08;;;;;;;3.00;1.27;;;36.00;24.70;;;;;;5136755;27;20472;-45
2022/03/14 10:48:43;;;;;;;2.63;1.13;;;36.20;24.00;;;;;;5138674;27;20175;-47
2022/03/14 10:51:18;;;;;;;2.03;1.03;;;36.60;24.00;;;;;;5135075;27;20734;-47
2022/03/14 10:53:45;;;;;;;2.90;1.40;;;36.80;24.20;;;;;;5139044;27;20419;-47
2022/03/14 10:56:11;;;;;;;3.00;1.20;;;37.30;23.70;;;;;;5138287;27;20480;-46
2022/03/14 10:58:38;;;;;;;3.60;1.30;;;37.40;23.70;;;;;;5137909;27;20412;-47
2022/03/14 11:01:12;;;;;;;3.53;1.50;;;37.30;23.60;;;;;;5121877;27;20426;-46
2022/03/14 11:03:39;;;;;;;2.00;1.23;;;37.60;23.30;;;;;;5117841;28;20447;-47
2022/03/14 11:06:19;;;;;;;2.13;1.37;;;37.20;23.10;;;;;;5115458;28;20396;-47
2022/03/14 11:08:48;;;;;;;6.33;1.63;;;37.00;23.40;;;;;;5100127;28;20432;-47
2022/03/14 11:11:20;;;;;;;3.40;1.40;;;37.00;23.40;;;;;;5117609;28;20886;-47
2022/03/14 11:13:47;;;;;;;3.20;1.10;;;37.20;23.70;;;;;;5118398;28;20486;-46
2022/03/14 11:16:23;;;;;;;1.90;1.00;;;37.90;23.50;;;;;;5117660;28;20432;-46
2022/03/14 11:18:50;;;;;;;2.00;1.00;;;37.20;23.50;;;;;;5123211;27;20489;-47
2022/03/14 11:21:20;;;;;;;1.90;1.00;;;36.20;23.60;;;;;;5121259;27;20526;-47
2022/03/14 11:23:49;;;;;;;2.30;1.00;;;35.00;23.10;;;;;;5117288;28;20455;-48
2022/03/14 11:26:19;;;;;;;1.97;1.20;;;34.80;23.80;;;;;;5118290;27;20852;-48
2022/03/14 11:28:46;;;;;;;3.90;1.30;;;35.60;24.00;;;;;;5118191;28;20836;-48
2022/03/14 11:31:12;;;;;;;3.07;1.30;;;36.30;23.90;;;;;;5117617;28;20400;-48
2022/03/14 11:33:38;;;;;;;2.87;1.43;;;36.20;23.40;;;;;;5119281;28;20481;-47
2022/03/14 11:36:05;;;;;;;2.93;1.40;;;36.20;23.60;;;;;;5116699;28;20404;-46
2022/03/14 11:38:30;;;;;;;2.30;1.00;;;36.80;23.60;;;;;;5116695;28;20740;-48
2022/03/14 11:40:57;;;;;;;2.50;1.27;;;36.60;23.90;;;;;;5116388;28;20409;-48
2022/03/14 11:43:23;;;;;;;3.00;1.30;;;37.20;23.60;;;;;;5116909;28;20203;-48
2022/03/14 11:45:50;;;;;;;2.07;1.00;;;37.90;23.70;;;;;;5113725;28;20669;-48
2022/03/14 11:48:16;;;;;;;3.93;1.20;;;37.50;23.20;;;;;;5099535;28;20179;-48
2022/03/14 11:50:42;;;;;;;2.50;1.40;;;37.30;23.20;;;;;;5082271;28;20823;-48
2022/03/14 11:53:08;;;;;;;2.40;1.23;;;36.60;23.30;;;;;;5118645;28;20484;-48
2022/03/14 11:55:34;;;;;;;1.97;0.93;;;36.30;23.40;;;;;;5117932;28;20563;-48
2022/03/14 11:58:00;;;;;;;1.77;1.03;;;35.70;23.80;;;;;;5119712;28;20190;-48
2022/03/14 12:00:27;;;;;;;4.30;1.27;;;36.20;23.70;;;;;;5101386;28;20179;-48
2022/03/14 12:02:55;;;;;;;2.30;1.27;;;37.30;23.50;;;;;;5119774;28;20493;-47
2022/03/14 12:05:38;;;;;;;2.77;1.23;;;38.40;23.30;;;;;;5119999;28;20426;-48
2022/03/14 12:08:07;;;;;;;3.77;1.37;;;39.50;22.90;;;;;;5120773;27;20698;-48
2022/03/14 12:10:34;;;;;;;1.90;1.13;;;39.00;22.50;;;;;;5139551;27;20402;-48
2022/03/14 12:13:01;;;;;;;2.03;1.00;;;39.40;22.20;;;;;;5137709;27;20524;-48
2022/03/14 12:15:41;;;;;;;2.60;1.23;;;40.00;22.40;;;;;;5139193;27;20553;-48
2022/03/14 12:18:26;;;;;;;2.47;1.17;;;40.60;21.70;;;;;;5135413;27;20433;-47
2022/03/14 12:20:52;;;;;;;2.87;1.10;;;40.20;22.00;;;;;;5138789;27;20421;-47
2022/03/14 12:23:26;;;;;;;2.10;1.10;;;40.10;21.50;;;;;;5138123;27;20474;-48
2022/03/14 12:25:54;;;;;;;1.87;0.90;;;40.40;21.70;;;;;;5137265;27;20328;-47
2022/03/14 12:28:33;;;;;;;1.57;0.77;;;40.70;21.90;;;;;;5118363;27;20426;-48
2022/03/14 12:30:59;;;;;;;2.47;1.00;;;41.10;21.70;;;;;;5136318;27;20407;-48
2022/03/14 12:33:48;;;;;;;3.67;1.03;;;41.50;21.70;;;;;;5135843;27;20419;-48
2022/03/14 12:36:23;;;;;;;1.90;1.00;;;41.00;21.60;;;;;;5118052;27;20420;-48
2022/03/14 12:39:09;;;;;;;2.83;0.93;;;40.90;21.40;;;;;;5116577;27;20419;-45
2022/03/14 12:41:40;;;;;;;2.03;0.90;;;41.40;21.80;;;;;;5118584;27;20408;-42
2022/03/14 12:44:25;;;;;;;3.70;1.00;;;41.50;21.30;;;;;;5118515;27;20471;-42
2022/03/14 12:46:55;;;;;;;1.50;0.80;;;41.80;21.30;;;;;;5135175;27;20845;-41